< Typhoon 198306 1983 Season Typhoon 198308 >
Typhoon 198307 (CARMEN)
General InformationTrack Information on Google MapsDetailed Wind InformationList of All Images || Disaster Info.ResourceGoogle EarthGE AnimationAtom FeedGeoJSON
Detalied Best Track (Time Zone = UTC)
Year Month Day Hour Lat. Long. Pressure (hPa) Wind (kt) Class Image Chart
1983 8 9 00 14.0 113.0 1006 0 2 Image Chart
1983 8 9 06 14.0 113.5 1004 0 2 Image Chart
1983 8 9 12 14.0 114.0 1004 0 2 Image Chart
1983 8 9 18 14.1 114.5 1002 0 2 Image Chart
1983 8 10 00 14.4 114.8 1002 0 2 Image Chart
1983 8 10 06 14.7 115.0 1002 0 2 Image Chart
1983 8 10 12 15.0 115.0 1002 0 2 Image Chart
1983 8 10 18 15.3 115.1 1002 0 2 Image Chart
1983 8 11 00 15.7 115.1 1000 0 2 Image Chart
1983 8 11 06 16.1 115.2 1000 0 2 Image Chart
1983 8 11 12 16.6 115.4 1000 0 2 Image Chart
1983 8 11 18 17.0 115.8 1000 0 2 Image Chart
1983 8 12 00 17.4 116.3 1000 0 2 Image Chart
1983 8 12 06 17.9 116.7 1000 0 2 Image Chart
1983 8 12 12 18.5 117.0 1000 0 2 Image Chart
1983 8 12 18 18.9 117.4 1000 0 2 Image Chart
1983 8 13 00 19.2 118.2 1000 0 2 Image Chart
1983 8 13 06 19.4 119.0 1000 0 2 Image Chart
1983 8 13 12 19.7 119.8 998 40 3 Image Chart
1983 8 13 18 19.8 120.6 996 40 3 Image Chart
1983 8 14 00 19.8 121.5 996 40 3 Image Chart
1983 8 14 06 19.8 122.8 996 40 3 Image Chart
1983 8 14 12 19.9 124.4 992 40 3 Image Chart
1983 8 14 18 20.3 126.3 992 40 3 Image Chart
1983 8 15 00 20.9 128.6 992 40 3 Image Chart
1983 8 15 06 22.1 131.1 994 40 3 Image Chart
1983 8 15 12 24.0 133.0 994 0 2 Image Chart
Japan Meteorological Agency Best Track Data | Correction Date : 1992-10-21
< Typhoon 198306 1983 Season Typhoon 198308 >

Help